A- A+ FrançaisEnglishEspañol中国

Services sur Internet Soldes sur Internet Des idées de cadeaux Météo Météo aéro

La météo à : Autours de vous Lyon-Bron Orange-CaritatBordeaux-MerignacBiscarrosse-Parentis

La météo aéronautique pour les pilotes, la préparation du vol avec les METAR (METeorological Aerodrome Report, message d'observation des conditions météorologiques pour l'aviation) et Les TAF (Terminal Aerodrome Forecast : message de prévision à court terme des conditions météorologiques pour l'aviation). Et les autres ressources comme les VAC (Visual Approch Chart) et les NOTAM (Notice To Airman) pour préprer les vols.

Aéroport Abbotsford (Canada) / OACI CYXX / IATA YXX

L'altitude de l'aéroport Abbotsford est de 59 mètres. Il est situé à proximité de Abbotsford (Canada). La météo générale à 5 jours est disponible pour Clearbrook situé à 5.9 km.

METAR de l'aéroport Abbotsford - CYXX

CYXX 211100Z 01006KT 15SM SKC 01/M01 A3005 RMK SLP179

Décodage du METAR de l'aéroport Abbotsford (CA)

METAR émis par CYXX le jeudi 21 novembre 2019 à 11:00 heure TU. Attention ce METAR est obsolète car il a été émis il y a 1 heure et 9 minutes.

La visibilité est de 24.1 km = 15 sm.

La température est de 1°C et le point rosée est de -1°C. Ce qui correspond à 86% d'humidité relative.

Le QNH est de 1018 hPa = 30.06 inHg

Vent de 6 kt = 11 km/h, orienté à 10°.

Pas de nuages.

RMK SLP179

TAF de l'aéroport Abbotsford - CYXX

CYXX 211139Z 2112/2212 VRB03KT P6SM SKC FM220300 VRB03KT P6SM FEW002 TEMPO 2203/2212 4SM BR PROB30 2203/2212 11/2SM BR RMK NXT FCST BY 211800Z

CYXX 211139Z 2112/2212 VRB03KT P6SM ciel dégagé FM220300 VRB03KT P6SM quelques nuages à 002 temporairement 2203/2212 4SM brume probabilité de 30% d'avoir 2203/2212 11/2SM brume remarques NXT trombe ST BY 211800Z

Aéroport à proximité de Abbotsford

Météo générale à 5 jours à Clearbrook (5.9 km)Aéroport Langley (21 km)Aéroport Bellingham (29 km)Aéroport Pitt Meadows (33 km)Aéroport Chilliwack (34 km)Aéroport Boundary Bay (48 km)Aéroport Orcas Is (53 km)

Vue aérienne de l'aéroport Abbotsford

NOTAM de l'aéroport Abbotsford

Les NOTAM sont fournis sans aucune garantie de leur actualité. Le pilote est le seul responsable de la vérification de sa validité avant de l'utiliser opérationnellement pour préparer un vol ou l'utiliser lors de sa navigation.

Pas de NOTAM

Sources des données